createdAt,value
2023-04-27T00:00:01.378Z,72.47
2023-04-27T00:01:12.768Z,72.55
2023-04-27T00:02:16.589Z,72.48
2023-04-27T00:03:19.875Z,72.45
2023-04-27T00:04:23.229Z,72.51
2023-04-27T00:05:26.579Z,72.62
2023-04-27T00:06:29.705Z,72.66
2023-04-27T00:07:32.829Z,72.69
2023-04-27T00:08:35.877Z,72.50
2023-04-27T00:09:39.098Z,72.62
2023-04-27T00:10:42.113Z,72.66
2023-04-27T00:11:45.053Z,72.70
2023-04-27T00:12:47.964Z,72.86
2023-04-27T00:13:51.036Z,72.79
2023-04-27T00:14:53.953Z,72.66
2023-04-27T00:15:57.185Z,72.76
2023-04-27T00:17:00.130Z,72.89
2023-04-27T00:18:03.071Z,72.96
2023-04-27T00:19:06.096Z,72.89
2023-04-27T00:20:11.886Z,73.00
2023-04-27T00:21:14.864Z,73.17
2023-04-27T00:22:18.483Z,73.06
2023-04-27T00:23:21.745Z,73.13
2023-04-27T00:24:24.708Z,73.20
2023-04-27T00:25:27.914Z,73.15
2023-04-27T00:26:30.994Z,73.16
2023-04-27T00:27:35.341Z,73.32
2023-04-27T00:28:38.202Z,73.19
2023-04-27T00:29:44.097Z,73.32
2023-04-27T00:30:47.279Z,73.16
2023-04-27T00:31:50.148Z,73.32
2023-04-27T00:32:53.091Z,73.29
2023-04-27T00:33:56.075Z,73.20
2023-04-27T00:34:58.928Z,73.30
2023-04-27T00:36:02.498Z,73.40
2023-04-27T00:37:05.883Z,73.61
2023-04-27T00:38:09.140Z,73.54
2023-04-27T00:39:12.451Z,73.40
2023-04-27T00:40:15.778Z,73.50
2023-04-27T00:41:18.674Z,73.45
2023-04-27T00:42:21.690Z,73.57
2023-04-27T00:43:27.309Z,73.59
2023-04-27T00:44:30.900Z,73.66
2023-04-27T00:45:41.552Z,73.75
2023-04-27T00:46:44.592Z,73.66
2023-04-27T00:47:49.900Z,73.87
2023-04-27T00:48:54.429Z,73.82
2023-04-27T00:49:57.534Z,73.92
2023-04-27T00:51:01.479Z,73.83
2023-04-27T00:52:04.501Z,74.01
2023-04-27T00:53:07.960Z,73.90
2023-04-27T00:54:11.300Z,73.80
2023-04-27T00:55:14.210Z,73.98
2023-04-27T00:56:17.316Z,74.21
2023-04-27T00:57:20.600Z,74.17
2023-04-27T00:58:23.592Z,74.23
2023-04-27T00:59:26.790Z,74.16
2023-04-27T01:00:29.837Z,74.21
2023-04-27T01:01:33.376Z,74.28
2023-04-27T01:02:37.114Z,74.15
2023-04-27T01:03:40.399Z,74.22
2023-04-27T01:04:43.651Z,74.42
2023-04-27T01:05:46.499Z,74.45
2023-04-27T01:06:50.835Z,74.27
2023-04-27T01:07:53.739Z,74.33
2023-04-27T01:08:56.662Z,74.47
2023-04-27T01:09:59.545Z,74.46
2023-04-27T01:11:02.386Z,74.44
2023-04-27T01:12:05.592Z,74.50
2023-04-27T01:13:08.465Z,74.68
2023-04-27T01:14:11.539Z,74.65
2023-04-27T01:15:14.407Z,74.59
2023-04-27T01:16:20.374Z,74.63
2023-04-27T01:17:23.276Z,74.61
2023-04-27T01:18:26.500Z,74.56
2023-04-27T01:19:29.439Z,74.52
2023-04-27T01:20:32.554Z,74.58
2023-04-27T01:21:35.782Z,74.62
2023-04-27T01:22:39.087Z,74.63
2023-04-27T01:23:42.118Z,74.63
2023-04-27T01:24:47.177Z,74.77
2023-04-27T01:25:50.022Z,74.65
2023-04-27T01:26:54.071Z,74.70
2023-04-27T01:27:56.963Z,74.63
2023-04-27T01:29:00.066Z,74.78
2023-04-27T01:30:03.561Z,74.74
2023-04-27T01:31:07.011Z,74.89
2023-04-27T01:32:09.916Z,74.91
2023-04-27T01:33:13.203Z,74.94
2023-04-27T01:34:16.205Z,74.94
2023-04-27T01:35:23.450Z,74.99
2023-04-27T01:36:27.829Z,75.01
2023-04-27T01:37:32.135Z,75.11
2023-04-27T01:38:35.829Z,75.07
2023-04-27T01:39:38.935Z,75.11
2023-04-27T01:40:44.212Z,75.11
2023-04-27T01:41:47.104Z,75.12
2023-04-27T01:42:50.011Z,75.22
2023-04-27T01:43:52.914Z,75.13
2023-04-27T01:44:55.781Z,75.37
2023-04-27T01:46:08.462Z,75.24
2023-04-27T01:47:11.892Z,75.44
2023-04-27T01:48:16.606Z,75.21
2023-04-27T01:49:20.498Z,75.30
2023-04-27T01:50:25.206Z,75.32
2023-04-27T01:51:28.494Z,75.34
2023-04-27T01:52:31.393Z,75.54
2023-04-27T01:53:34.941Z,75.58
2023-04-27T01:54:37.765Z,75.59
2023-04-27T01:55:42.538Z,75.50
2023-04-27T01:56:45.431Z,75.67
2023-04-27T01:57:48.312Z,75.65
2023-04-27T01:58:53.501Z,75.59
2023-04-27T01:59:56.450Z,75.75
2023-04-27T02:00:59.399Z,75.57
2023-04-27T02:02:02.356Z,75.69
2023-04-27T02:03:06.070Z,75.65
2023-04-27T02:04:09.094Z,75.76
2023-04-27T02:05:12.079Z,75.56
2023-04-27T02:06:14.907Z,75.77
2023-04-27T02:07:17.960Z,75.75
2023-04-27T02:08:21.119Z,75.64
2023-04-27T02:09:24.032Z,75.86
2023-04-27T02:10:26.946Z,75.67
2023-04-27T02:11:32.849Z,75.63
2023-04-27T02:12:35.729Z,75.76
2023-04-27T02:13:39.505Z,75.85
2023-04-27T02:14:42.856Z,75.79
2023-04-27T02:15:45.942Z,75.88
2023-04-27T02:16:48.880Z,75.82
2023-04-27T02:17:52.413Z,75.73
2023-04-27T02:18:55.452Z,75.91
2023-04-27T02:19:58.400Z,75.99
2023-04-27T02:21:07.822Z,75.82
2023-04-27T02:22:12.623Z,75.84
2023-04-27T02:23:15.530Z,75.81
2023-04-27T02:24:18.793Z,75.76
2023-04-27T02:25:21.638Z,75.86
2023-04-27T02:26:29.514Z,75.77
2023-04-27T02:27:33.042Z,75.92
2023-04-27T02:28:36.404Z,75.84
2023-04-27T02:29:39.690Z,75.89
2023-04-27T02:30:43.203Z,76.09
2023-04-27T02:31:46.584Z,75.92
2023-04-27T02:32:49.774Z,75.84
2023-04-27T02:33:53.023Z,75.95
2023-04-27T02:34:56.983Z,75.92
2023-04-27T02:36:00.950Z,75.99
2023-04-27T02:37:04.752Z,76.00
2023-04-27T02:38:07.680Z,76.03
2023-04-27T02:39:13.398Z,76.19
2023-04-27T02:40:16.465Z,76.18
2023-04-27T02:41:19.336Z,76.17
2023-04-27T02:42:22.340Z,76.20
2023-04-27T02:43:25.268Z,76.30
2023-04-27T02:44:28.138Z,76.29
2023-04-27T02:45:31.028Z,76.22
2023-04-27T02:46:34.428Z,76.21
2023-04-27T02:47:37.653Z,76.35
2023-04-27T02:48:40.676Z,76.45
2023-04-27T02:49:43.994Z,76.37
2023-04-27T02:50:46.869Z,76.43
2023-04-27T02:51:50.457Z,76.37
2023-04-27T02:52:53.481Z,76.61
2023-04-27T02:53:56.473Z,76.64
2023-04-27T02:54:59.346Z,76.55
2023-04-27T02:56:02.192Z,76.47
2023-04-27T02:57:05.614Z,76.55
2023-04-27T02:58:08.623Z,76.43
2023-04-27T02:59:11.924Z,76.59
2023-04-27T03:00:15.486Z,76.65
2023-04-27T03:01:18.461Z,76.50
2023-04-27T03:02:21.584Z,76.88
2023-04-27T03:03:25.211Z,76.78
2023-04-27T03:04:28.529Z,76.64
2023-04-27T03:05:32.010Z,76.75
2023-04-27T03:06:34.987Z,76.69
2023-04-27T03:07:37.920Z,76.69
2023-04-27T03:08:41.297Z,76.77
2023-04-27T03:09:44.170Z,76.71
2023-04-27T03:10:47.085Z,76.70
2023-04-27T03:11:50.708Z,76.71
2023-04-27T03:12:53.589Z,76.77
2023-04-27T03:13:57.941Z,76.89
2023-04-27T03:15:01.218Z,76.73
2023-04-27T03:16:04.257Z,76.83
2023-04-27T03:17:07.195Z,76.76
2023-04-27T03:18:10.264Z,76.89
2023-04-27T03:19:13.461Z,76.79
2023-04-27T03:20:16.602Z,76.73
2023-04-27T03:21:19.536Z,76.66
2023-04-27T03:22:25.194Z,76.66
2023-04-27T03:23:28.095Z,76.79
2023-04-27T03:24:31.107Z,76.88
2023-04-27T03:25:34.098Z,76.91
2023-04-27T03:26:36.931Z,76.67
2023-04-27T03:27:40.506Z,76.79
2023-04-27T03:28:43.394Z,76.80
2023-04-27T03:29:46.350Z,77.06
2023-04-27T03:30:49.225Z,76.84
2023-04-27T03:31:52.162Z,77.03
2023-04-27T03:32:55.231Z,76.95
2023-04-27T03:33:58.346Z,76.88
2023-04-27T03:35:01.188Z,77.08
2023-04-27T03:36:06.650Z,76.91
2023-04-27T03:37:09.702Z,77.00
2023-04-27T03:38:13.127Z,76.96
2023-04-27T03:39:16.526Z,76.93
2023-04-27T03:40:19.784Z,77.19
2023-04-27T03:41:23.012Z,77.18
2023-04-27T03:42:25.932Z,77.17
2023-04-27T03:43:29.182Z,77.27
2023-04-27T03:44:33.614Z,77.11
2023-04-27T03:45:36.571Z,77.21
2023-04-27T03:46:39.562Z,77.35
2023-04-27T03:47:42.554Z,77.36
2023-04-27T03:48:47.276Z,77.41
2023-04-27T03:49:50.406Z,77.37
2023-04-27T03:50:53.305Z,77.34
2023-04-27T03:51:56.963Z,77.34
2023-04-27T03:52:59.884Z,77.48
2023-04-27T03:54:02.916Z,77.26
2023-04-27T03:55:07.143Z,77.47
2023-04-27T03:56:10.624Z,77.32
2023-04-27T03:57:13.551Z,77.45
2023-04-27T03:58:17.600Z,77.30
2023-04-27T03:59:39.309Z,77.63
2023-04-27T04:00:42.326Z,77.55
2023-04-27T04:01:45.296Z,77.66
2023-04-27T04:02:48.399Z,77.81
2023-04-27T04:03:51.770Z,77.89
2023-04-27T04:04:55.032Z,77.76
2023-04-27T04:05:57.974Z,77.82
2023-04-27T04:07:00.949Z,77.75
2023-04-27T04:08:03.984Z,77.70
2023-04-27T04:09:06.999Z,77.72
2023-04-27T04:10:11.036Z,77.71
2023-04-27T04:11:13.971Z,77.72
2023-04-27T04:12:17.022Z,77.61
2023-04-27T04:13:19.931Z,77.69
2023-04-27T04:14:23.024Z,77.65
2023-04-27T04:15:26.303Z,77.64
2023-04-27T04:16:29.464Z,77.71
2023-04-27T04:17:34.175Z,77.66
2023-04-27T04:18:38.386Z,77.66
2023-04-27T04:19:41.730Z,77.66
2023-04-27T04:20:44.679Z,77.74
2023-04-27T04:21:47.633Z,77.47
2023-04-27T04:22:50.727Z,77.47
2023-04-27T04:23:53.597Z,77.51
2023-04-27T04:24:56.890Z,77.62
2023-04-27T04:25:59.985Z,77.47
2023-04-27T04:27:06.233Z,77.63
2023-04-27T04:28:09.151Z,77.58
2023-04-27T04:29:12.361Z,77.54
2023-04-27T04:30:16.007Z,77.58
2023-04-27T04:31:19.126Z,77.68
2023-04-27T04:32:23.107Z,77.62
2023-04-27T04:33:26.470Z,77.54
2023-04-27T04:34:29.383Z,77.46
2023-04-27T04:35:33.208Z,77.49
2023-04-27T04:36:36.275Z,77.43
2023-04-27T04:37:39.341Z,77.47
2023-04-27T04:38:42.237Z,77.44
2023-04-27T04:39:45.600Z,77.37
2023-04-27T04:40:48.606Z,77.49
2023-04-27T04:41:51.669Z,77.50
2023-04-27T04:42:54.918Z,77.43
2023-04-27T04:43:58.000Z,77.43
2023-04-27T04:45:01.063Z,77.47
2023-04-27T04:46:03.988Z,77.35
2023-04-27T04:47:06.860Z,77.49
2023-04-27T04:48:10.418Z,77.42
2023-04-27T04:49:13.528Z,77.37
2023-04-27T04:50:16.659Z,77.30
2023-04-27T04:51:19.509Z,77.43
2023-04-27T04:52:22.837Z,77.27
2023-04-27T04:53:26.287Z,77.29
2023-04-27T04:54:31.838Z,77.28
2023-04-27T04:55:34.751Z,77.13
2023-04-27T04:56:37.949Z,77.01
2023-04-27T04:57:41.057Z,77.21
2023-04-27T04:58:44.013Z,77.08
2023-04-27T04:59:46.872Z,77.10
2023-04-27T05:00:49.825Z,77.08
2023-04-27T05:01:56.025Z,77.12
2023-04-27T05:02:59.163Z,77.05
2023-04-27T05:04:02.431Z,77.00
2023-04-27T05:05:05.640Z,76.93
2023-04-27T05:06:08.613Z,77.10
2023-04-27T05:07:14.698Z,77.09
2023-04-27T05:08:17.962Z,76.93
2023-04-27T05:09:20.796Z,76.90
2023-04-27T05:10:23.692Z,76.78
2023-04-27T05:11:26.968Z,77.09
2023-04-27T05:12:29.860Z,76.83
2023-04-27T05:13:32.729Z,76.66
2023-04-27T05:14:35.886Z,76.62
2023-04-27T05:15:38.784Z,76.65
2023-04-27T05:16:41.833Z,76.82
2023-04-27T05:17:44.998Z,76.81
2023-04-27T05:18:47.851Z,76.60
2023-04-27T05:19:50.917Z,76.54
2023-04-27T05:20:53.784Z,76.39
2023-04-27T05:21:57.609Z,76.55
2023-04-27T05:23:00.462Z,76.55
2023-04-27T05:24:03.508Z,76.61
2023-04-27T05:25:06.719Z,76.53
2023-04-27T05:26:17.435Z,76.43
2023-04-27T05:27:20.718Z,76.49
2023-04-27T05:28:23.607Z,76.57
2023-04-27T05:29:27.723Z,76.44
2023-04-27T05:30:31.011Z,76.40
2023-04-27T05:31:34.455Z,76.44
2023-04-27T05:32:37.843Z,76.22
2023-04-27T05:33:40.759Z,76.02
2023-04-27T05:34:46.717Z,76.14
2023-04-27T05:35:51.075Z,75.95
2023-04-27T05:36:53.968Z,76.06
2023-04-27T05:37:57.789Z,76.18
2023-04-27T05:39:00.656Z,75.98
2023-04-27T05:40:06.091Z,76.23
2023-04-27T05:41:09.362Z,76.20
2023-04-27T05:42:12.225Z,76.29
2023-04-27T05:43:15.299Z,76.09
2023-04-27T05:44:18.220Z,76.03
2023-04-27T05:45:21.768Z,76.03
2023-04-27T05:46:24.774Z,75.84
2023-04-27T05:47:27.741Z,75.83
2023-04-27T05:48:31.123Z,75.64
2023-04-27T05:49:33.980Z,75.22
2023-04-27T05:50:36.925Z,75.16
2023-04-27T05:51:39.789Z,75.06
2023-04-27T05:52:42.662Z,75.09
2023-04-27T05:53:45.561Z,74.99
2023-04-27T05:54:49.898Z,75.02
2023-04-27T05:55:52.771Z,75.07
2023-04-27T05:56:55.757Z,74.96
2023-04-27T05:58:07.525Z,75.08
2023-04-27T05:59:12.192Z,74.92
2023-04-27T06:00:16.633Z,74.67
2023-04-27T06:01:19.749Z,74.51
2023-04-27T06:02:23.264Z,74.62
2023-04-27T06:03:27.234Z,74.64
2023-04-27T06:04:32.905Z,74.23
2023-04-27T06:05:36.062Z,74.39
2023-04-27T06:06:39.190Z,74.47
2023-04-27T06:07:43.824Z,74.49
2023-04-27T06:08:46.692Z,74.30
2023-04-27T06:09:49.556Z,74.33
2023-04-27T06:10:52.597Z,74.30
2023-04-27T06:11:55.624Z,74.11
2023-04-27T06:12:58.426Z,73.83
2023-04-27T06:14:01.283Z,73.74
2023-04-27T06:15:08.565Z,73.37
2023-04-27T06:16:11.499Z,73.45
2023-04-27T06:17:14.494Z,73.56
2023-04-27T06:18:17.373Z,73.88
2023-04-27T06:19:21.037Z,73.47
2023-04-27T06:20:24.043Z,73.47
2023-04-27T06:21:27.002Z,73.26
2023-04-27T06:22:29.811Z,73.19
2023-04-27T06:23:32.757Z,73.28
2023-04-27T06:24:36.622Z,72.92
2023-04-27T06:25:40.699Z,72.77
2023-04-27T06:26:43.568Z,72.75
2023-04-27T06:27:46.570Z,73.06
2023-04-27T06:28:49.402Z,72.80
2023-04-27T06:29:53.882Z,72.87
2023-04-27T06:30:56.725Z,72.50
2023-04-27T06:31:59.754Z,72.40
2023-04-27T06:33:03.112Z,72.35
2023-04-27T06:34:06.746Z,72.15
2023-04-27T06:35:09.826Z,71.94
2023-04-27T06:36:12.757Z,71.81
2023-04-27T06:37:17.330Z,71.91
2023-04-27T06:38:20.275Z,71.79
2023-04-27T06:39:23.118Z,71.79
2023-04-27T06:40:27.019Z,71.40
2023-04-27T06:41:29.936Z,71.69
2023-04-27T06:42:32.801Z,72.04
2023-04-27T06:43:35.772Z,72.05
2023-04-27T06:44:39.101Z,71.82
2023-04-27T06:45:42.892Z,71.15
2023-04-27T06:46:45.954Z,71.00
2023-04-27T06:47:49.025Z,71.05
2023-04-27T06:48:52.813Z,71.04
2023-04-27T06:49:55.659Z,70.87
2023-04-27T06:50:58.561Z,70.51
2023-04-27T06:52:03.085Z,69.70
2023-04-27T06:53:06.013Z,69.52
2023-04-27T06:54:08.942Z,68.98
2023-04-27T06:55:11.850Z,68.80
2023-04-27T06:56:14.731Z,68.46
2023-04-27T06:57:17.604Z,68.04
2023-04-27T06:58:20.467Z,68.37
2023-04-27T06:59:23.417Z,68.36
2023-04-27T07:00:27.232Z,68.48
2023-04-27T07:01:30.350Z,68.28
2023-04-27T07:02:33.366Z,68.27
2023-04-27T07:03:36.896Z,68.41
2023-04-27T07:04:40.311Z,68.09
2023-04-27T07:05:43.385Z,68.20
2023-04-27T07:06:46.442Z,67.26
2023-04-27T07:07:49.418Z,66.95
2023-04-27T07:08:52.286Z,67.37
2023-04-27T07:09:55.149Z,67.20
2023-04-27T07:10:58.430Z,67.04
2023-04-27T07:12:01.453Z,66.25
2023-04-27T07:13:05.844Z,66.48
2023-04-27T07:14:10.368Z,66.46
2023-04-27T07:15:13.494Z,66.43
2023-04-27T07:16:16.904Z,66.57
2023-04-27T07:17:19.940Z,66.60
2023-04-27T07:18:22.896Z,65.80
2023-04-27T07:19:26.189Z,65.42
2023-04-27T07:20:29.111Z,65.36
2023-04-27T07:21:32.058Z,66.20
2023-04-27T07:22:34.879Z,66.81
2023-04-27T07:23:39.962Z,66.69
2023-04-27T07:24:42.835Z,65.24
2023-04-27T07:25:46.403Z,64.30
2023-04-27T07:26:49.330Z,64.11
2023-04-27T07:27:52.508Z,64.21
2023-04-27T07:28:56.664Z,63.56
2023-04-27T07:29:59.631Z,64.16
2023-04-27T07:31:04.947Z,64.10
2023-04-27T07:32:09.030Z,64.16
2023-04-27T07:33:13.303Z,64.86
2023-04-27T07:34:16.188Z,64.63
2023-04-27T07:35:19.355Z,64.57
2023-04-27T07:36:22.258Z,64.20
2023-04-27T07:37:25.097Z,63.29
2023-04-27T07:38:29.710Z,63.02
2023-04-27T07:39:32.540Z,63.23
2023-04-27T07:40:35.487Z,63.25
2023-04-27T07:41:39.259Z,63.37
2023-04-27T07:42:42.993Z,63.40
2023-04-27T07:43:46.075Z,62.98
2023-04-27T07:44:54.122Z,63.35
2023-04-27T07:45:58.449Z,63.44
2023-04-27T07:47:08.196Z,63.30
2023-04-27T07:48:11.233Z,62.82
2023-04-27T07:49:15.613Z,61.97
2023-04-27T07:50:24.440Z,62.31
2023-04-27T07:51:28.884Z,62.75
2023-04-27T07:52:32.141Z,63.09
2023-04-27T07:53:36.076Z,63.07
2023-04-27T07:54:40.195Z,62.64
2023-04-27T07:55:46.091Z,62.93
2023-04-27T07:56:49.063Z,63.23
2023-04-27T07:57:58.277Z,63.32
2023-04-27T07:59:01.445Z,62.21
2023-04-27T08:00:07.429Z,62.52
2023-04-27T08:01:15.859Z,62.84
2023-04-27T08:02:20.095Z,62.59
2023-04-27T08:03:23.982Z,62.51
2023-04-27T08:04:27.380Z,62.34
2023-04-27T08:05:30.863Z,61.50
2023-04-27T08:06:35.580Z,61.59
2023-04-27T08:07:44.155Z,62.01
2023-04-27T08:08:47.846Z,61.40
2023-04-27T08:09:52.550Z,61.39
2023-04-27T08:10:55.514Z,61.99
2023-04-27T08:11:58.572Z,61.81
2023-04-27T08:13:01.643Z,62.00
2023-04-27T08:14:04.524Z,62.00
2023-04-27T08:15:08.333Z,61.67
2023-04-27T08:16:11.493Z,61.91
2023-04-27T08:17:14.511Z,62.28
2023-04-27T08:18:18.087Z,62.11
2023-04-27T08:19:21.661Z,61.49
2023-04-27T08:20:24.563Z,61.03
2023-04-27T08:21:28.694Z,60.89
2023-04-27T08:22:31.625Z,60.85
2023-04-27T08:23:34.617Z,61.11
2023-04-27T08:24:37.577Z,60.78
2023-04-27T08:25:40.429Z,60.38
2023-04-27T08:26:43.262Z,60.01
2023-04-27T08:27:46.132Z,60.30
2023-04-27T08:28:49.475Z,60.54
2023-04-27T08:29:52.643Z,60.37
2023-04-27T08:30:55.634Z,59.98
2023-04-27T08:32:00.908Z,60.18
2023-04-27T08:33:04.010Z,60.36
2023-04-27T08:34:06.944Z,60.54
2023-04-27T08:35:10.050Z,60.88
2023-04-27T08:36:12.920Z,61.03
2023-04-27T08:37:15.822Z,60.51
2023-04-27T08:38:19.429Z,60.42
2023-04-27T08:39:23.979Z,60.53
2023-04-27T08:40:27.318Z,60.81
2023-04-27T08:41:30.407Z,60.89
2023-04-27T08:42:33.404Z,60.62
2023-04-27T08:43:36.838Z,59.99
2023-04-27T08:44:44.611Z,59.69
2023-04-27T08:45:50.243Z,59.97
2023-04-27T08:46:53.176Z,60.66
2023-04-27T08:47:56.167Z,60.82
2023-04-27T08:48:59.129Z,60.65
2023-04-27T08:50:03.848Z,60.21
2023-04-27T08:51:11.151Z,59.86
2023-04-27T08:52:15.421Z,59.97
2023-04-27T08:53:22.274Z,59.95
2023-04-27T08:54:25.165Z,60.11
2023-04-27T08:55:28.242Z,60.28
2023-04-27T08:56:31.373Z,60.37
2023-04-27T08:57:34.192Z,60.01
2023-04-27T08:58:37.897Z,59.99
2023-04-27T08:59:41.719Z,59.91
2023-04-27T09:00:46.171Z,59.95
2023-04-27T09:01:49.985Z,59.99
2023-04-27T09:02:53.201Z,59.95
2023-04-27T09:04:01.626Z,60.72
2023-04-27T09:05:06.553Z,60.43
2023-04-27T09:06:09.688Z,60.83
2023-04-27T09:07:17.998Z,61.05
2023-04-27T09:08:21.038Z,60.72
2023-04-27T09:09:25.492Z,60.55
2023-04-27T09:10:31.516Z,60.58
2023-04-27T09:11:38.173Z,59.50
2023-04-27T09:12:41.062Z,58.86
2023-04-27T09:13:45.572Z,58.63
2023-04-27T09:14:59.647Z,58.84
2023-04-27T09:16:02.752Z,59.35
2023-04-27T09:17:05.798Z,59.93
2023-04-27T09:18:15.685Z,60.24
2023-04-27T09:19:27.710Z,59.81
2023-04-27T09:20:30.932Z,58.87
2023-04-27T09:21:34.003Z,57.86
2023-04-27T09:22:47.584Z,58.03
2023-04-27T09:23:51.276Z,57.89
2023-04-27T09:24:54.256Z,58.27
2023-04-27T09:25:58.903Z,58.46
2023-04-27T09:27:03.267Z,57.96
2023-04-27T09:28:08.266Z,57.69
2023-04-27T09:29:11.257Z,57.14
2023-04-27T09:30:15.376Z,56.04
2023-04-27T09:31:18.922Z,56.25
2023-04-27T09:32:21.779Z,56.59
2023-04-27T09:33:32.922Z,56.64
2023-04-27T09:34:40.845Z,56.41
2023-04-27T09:35:45.829Z,55.74
2023-04-27T09:36:49.002Z,55.82
2023-04-27T09:37:53.457Z,55.99
2023-04-27T09:38:56.329Z,56.24
2023-04-27T09:39:59.186Z,56.41
2023-04-27T09:41:03.138Z,56.45
2023-04-27T09:42:06.334Z,56.32
2023-04-27T09:43:09.858Z,56.23
2023-04-27T09:44:14.237Z,56.20
2023-04-27T09:45:17.711Z,56.21
2023-04-27T09:46:23.573Z,56.53
2023-04-27T09:47:28.805Z,56.78
2023-04-27T09:48:32.004Z,57.67
2023-04-27T09:49:35.220Z,57.77
2023-04-27T09:50:41.057Z,57.73
2023-04-27T09:51:44.029Z,58.24
2023-04-27T09:52:47.222Z,58.28
2023-04-27T09:53:54.339Z,58.15
2023-04-27T09:54:58.947Z,58.78
2023-04-27T09:56:28.459Z,58.91
2023-04-27T09:57:39.649Z,59.02
2023-04-27T09:59:09.891Z,58.65
2023-04-27T10:00:42.714Z,59.36
2023-04-27T10:01:48.841Z,59.30
2023-04-27T10:03:10.208Z,59.48
2023-04-27T10:04:28.410Z,59.96
2023-04-27T10:05:50.317Z,60.53
2023-04-27T10:07:00.490Z,60.55
2023-04-27T10:08:05.346Z,60.66
2023-04-27T10:09:08.898Z,60.70
2023-04-27T10:10:18.854Z,61.34
2023-04-27T10:11:23.110Z,61.48
2023-04-27T10:12:36.561Z,61.78
2023-04-27T10:13:39.586Z,62.17
2023-04-27T10:15:16.360Z,62.33
2023-04-27T10:16:20.081Z,62.54
2023-04-27T10:17:33.149Z,62.22
2023-04-27T10:18:36.184Z,62.43
2023-04-27T10:19:39.035Z,62.10
2023-04-27T10:20:42.060Z,61.91
2023-04-27T10:22:00.576Z,62.23
2023-04-27T10:23:04.641Z,61.78
2023-04-27T10:24:09.199Z,62.10
2023-04-27T10:25:18.370Z,61.55
2023-04-27T10:26:25.621Z,61.78
2023-04-27T10:27:28.445Z,61.95
2023-04-27T10:28:40.300Z,61.93
2023-04-27T10:29:46.262Z,62.44
2023-04-27T10:30:49.745Z,62.59
2023-04-27T10:31:52.770Z,62.75
2023-04-27T10:33:04.200Z,63.12
2023-04-27T10:34:11.648Z,62.94
2023-04-27T10:35:14.576Z,62.74
2023-04-27T10:36:17.679Z,62.58
2023-04-27T10:37:22.126Z,62.54
2023-04-27T10:38:29.964Z,62.56
2023-04-27T10:39:47.526Z,62.74
2023-04-27T10:41:02.612Z,62.98
2023-04-27T10:42:06.592Z,63.13
2023-04-27T10:43:27.930Z,63.00
2023-04-27T10:44:33.494Z,62.27
2023-04-27T10:45:36.402Z,62.48
2023-04-27T10:46:50.605Z,62.07
2023-04-27T10:47:59.359Z,62.56
2023-04-27T10:49:05.646Z,62.31
2023-04-27T10:50:11.643Z,62.41
2023-04-27T10:51:20.328Z,62.22
2023-04-27T10:52:25.852Z,61.79
2023-04-27T10:53:34.939Z,62.42
2023-04-27T10:54:39.592Z,61.75
2023-04-27T10:55:42.725Z,62.11
2023-04-27T10:56:45.951Z,62.02
2023-04-27T10:57:50.073Z,61.99
2023-04-27T10:58:52.989Z,62.14
2023-04-27T10:59:56.108Z,62.09
2023-04-27T11:00:58.925Z,62.34
2023-04-27T11:02:02.003Z,62.16
2023-04-27T11:03:19.747Z,61.67
2023-04-27T11:04:22.839Z,61.53
2023-04-27T11:05:33.120Z,61.16
2023-04-27T11:06:43.018Z,60.88
2023-04-27T11:07:48.019Z,60.60
2023-04-27T11:08:51.039Z,60.65
2023-04-27T11:09:54.145Z,60.80
2023-04-27T11:10:57.328Z,61.32
2023-04-27T11:12:00.763Z,60.77
2023-04-27T11:13:09.365Z,60.87
2023-04-27T11:14:19.869Z,60.66
2023-04-27T11:15:22.741Z,59.57
2023-04-27T11:16:26.021Z,59.48
2023-04-27T11:17:30.168Z,58.98
2023-04-27T11:18:35.993Z,58.79
2023-04-27T11:19:48.793Z,58.78
2023-04-27T11:20:54.274Z,58.46
2023-04-27T11:22:04.841Z,58.93
2023-04-27T11:23:11.205Z,58.92
2023-04-27T11:24:15.505Z,58.88
2023-04-27T11:25:27.792Z,58.64
2023-04-27T11:26:30.758Z,58.37
2023-04-27T11:27:38.658Z,58.56
2023-04-27T11:28:45.927Z,58.67
2023-04-27T11:29:48.922Z,58.78
2023-04-27T11:30:59.231Z,58.65
2023-04-27T11:32:02.783Z,58.58
2023-04-27T11:33:08.592Z,58.40
2023-04-27T11:34:16.370Z,58.39
2023-04-27T11:35:19.321Z,58.10
2023-04-27T11:36:23.914Z,58.53
2023-04-27T11:37:27.827Z,58.51
2023-04-27T11:38:34.491Z,58.65
2023-04-27T11:39:39.000Z,58.58
2023-04-27T11:40:42.775Z,58.70
2023-04-27T11:41:46.598Z,58.82
2023-04-27T11:42:58.222Z,58.59
2023-04-27T11:44:07.790Z,58.39
2023-04-27T11:45:12.363Z,58.24
2023-04-27T11:46:15.493Z,58.47
2023-04-27T11:47:19.393Z,58.71
2023-04-27T11:48:27.159Z,58.64
2023-04-27T11:49:30.106Z,58.79
2023-04-27T11:50:33.131Z,58.73
2023-04-27T11:51:36.452Z,58.71
2023-04-27T11:52:42.488Z,58.84
2023-04-27T11:53:48.328Z,57.94
2023-04-27T11:54:53.730Z,58.07
2023-04-27T11:55:56.597Z,58.07
2023-04-27T11:57:07.218Z,57.90
2023-04-27T11:58:16.663Z,57.72
2023-04-27T11:59:21.627Z,56.41
2023-04-27T12:00:24.854Z,56.53
2023-04-27T12:01:36.895Z,55.90
2023-04-27T12:02:42.459Z,56.27
2023-04-27T12:03:46.053Z,56.42
2023-04-27T12:04:52.270Z,56.44
2023-04-27T12:05:55.988Z,56.52
2023-04-27T12:07:02.016Z,56.47
2023-04-27T12:08:05.571Z,56.58
2023-04-27T12:09:08.999Z,56.57
2023-04-27T12:10:12.570Z,56.26
2023-04-27T12:11:15.543Z,55.90
2023-04-27T12:12:19.409Z,56.02
2023-04-27T12:13:22.677Z,56.38
2023-04-27T12:14:26.128Z,56.29
2023-04-27T12:15:28.972Z,55.27
2023-04-27T12:16:31.950Z,54.53
2023-04-27T12:17:35.093Z,54.43
2023-04-27T12:18:38.022Z,54.39
2023-04-27T12:19:41.080Z,54.05
2023-04-27T12:20:43.968Z,53.53
2023-04-27T12:21:46.953Z,53.69
2023-04-27T12:22:50.244Z,53.83
2023-04-27T12:23:53.196Z,54.09
2023-04-27T12:24:56.317Z,53.94
2023-04-27T12:25:59.266Z,54.32
2023-04-27T12:27:03.995Z,54.47
2023-04-27T12:28:07.375Z,54.25
2023-04-27T12:29:11.249Z,53.95
2023-04-27T12:30:14.941Z,54.14
2023-04-27T12:31:23.231Z,53.69
2023-04-27T12:32:28.140Z,53.60
2023-04-27T12:33:31.915Z,53.70
2023-04-27T12:34:35.958Z,53.60
2023-04-27T12:35:38.887Z,53.26
2023-04-27T12:36:41.783Z,53.58
2023-04-27T12:37:44.945Z,53.92
2023-04-27T12:38:47.943Z,53.47
2023-04-27T12:39:50.871Z,53.69
2023-04-27T12:40:53.895Z,53.75
2023-04-27T12:41:58.351Z,53.87
2023-04-27T12:43:01.601Z,53.85
2023-04-27T12:44:04.595Z,53.68
2023-04-27T12:45:08.491Z,53.84
2023-04-27T12:46:11.696Z,54.09
2023-04-27T12:47:27.864Z,54.43
2023-04-27T12:48:37.689Z,54.16
2023-04-27T12:49:40.630Z,54.26
2023-04-27T12:50:44.189Z,54.44
2023-04-27T12:51:48.066Z,54.32
2023-04-27T12:52:51.444Z,54.33
2023-04-27T12:53:54.825Z,54.20
2023-04-27T12:54:59.377Z,54.25
2023-04-27T12:56:03.141Z,54.12
2023-04-27T12:57:06.848Z,54.04
2023-04-27T12:58:09.872Z,54.24
2023-04-27T12:59:13.445Z,54.10
2023-04-27T13:00:16.785Z,53.97
2023-04-27T13:01:21.538Z,53.92
2023-04-27T13:02:24.553Z,53.81
2023-04-27T13:03:27.769Z,53.88
2023-04-27T13:04:31.550Z,53.80
2023-04-27T13:05:34.561Z,53.88
2023-04-27T13:06:37.520Z,54.04
2023-04-27T13:07:40.518Z,53.99
2023-04-27T13:08:47.271Z,53.69
2023-04-27T13:09:50.142Z,53.50
2023-04-27T13:10:53.263Z,53.25
2023-04-27T13:11:56.174Z,53.07
2023-04-27T13:12:59.775Z,52.99
2023-04-27T13:14:02.626Z,53.02
2023-04-27T13:15:07.863Z,53.30
2023-04-27T13:16:11.917Z,53.16
2023-04-27T13:17:14.924Z,52.95
2023-04-27T13:18:17.761Z,53.14
2023-04-27T13:19:20.687Z,53.07
2023-04-27T13:20:23.565Z,52.77
2023-04-27T13:21:27.041Z,52.75
2023-04-27T13:22:31.160Z,52.90
2023-04-27T13:23:34.745Z,53.19
2023-04-27T13:24:37.963Z,53.15
2023-04-27T13:25:41.129Z,53.20
2023-04-27T13:26:44.049Z,52.69
2023-04-27T13:27:46.958Z,52.60
2023-04-27T13:28:49.968Z,52.21
2023-04-27T13:29:52.849Z,52.99
2023-04-27T13:30:56.345Z,52.75
2023-04-27T13:31:59.989Z,52.66
2023-04-27T13:33:18.705Z,52.44
2023-04-27T13:34:24.616Z,52.23
2023-04-27T13:35:27.673Z,52.77
2023-04-27T13:36:30.631Z,52.89
2023-04-27T13:37:33.527Z,52.69
2023-04-27T13:38:36.682Z,52.49
2023-04-27T13:39:39.666Z,52.99
2023-04-27T13:40:42.706Z,52.84
2023-04-27T13:41:46.142Z,52.44
2023-04-27T13:42:49.281Z,52.29
2023-04-27T13:43:52.412Z,52.59
2023-04-27T13:44:56.888Z,52.78
2023-04-27T13:46:01.693Z,52.75
2023-04-27T13:47:05.288Z,52.83
2023-04-27T13:48:08.813Z,52.83